sensor_id;sensor_type;location;lat;lon;timestamp;pressure;altitude;pressure_sealevel;temperature;humidity
69796;BME280;57073;45.650;9.612;2023-05-02T00:04:25;99135.56;;;12.27;69.59
69796;BME280;57073;45.650;9.612;2023-05-02T00:09:26;99131.16;;;12.43;68.66
69796;BME280;57073;45.650;9.612;2023-05-02T00:14:26;99119.25;;;12.44;69.39
69796;BME280;57073;45.650;9.612;2023-05-02T00:19:26;99108.50;;;12.49;69.12
69796;BME280;57073;45.650;9.612;2023-05-02T00:24:27;99104.25;;;12.59;69.33
69796;BME280;57073;45.650;9.612;2023-05-02T00:29:27;99106.34;;;12.51;69.54
69796;BME280;57073;45.650;9.612;2023-05-02T00:34:28;99105.91;;;12.60;69.19
69796;BME280;57073;45.650;9.612;2023-05-02T00:39:29;99089.56;;;12.49;69.46
69796;BME280;57073;45.650;9.612;2023-05-02T00:44:30;99072.94;;;12.63;68.25
69796;BME280;57073;45.650;9.612;2023-05-02T00:49:30;99050.69;;;12.56;68.43
69796;BME280;57073;45.650;9.612;2023-05-02T00:54:31;99049.66;;;12.34;68.70
69796;BME280;57073;45.650;9.612;2023-05-02T00:59:33;99051.94;;;12.21;69.86
69796;BME280;57073;45.650;9.612;2023-05-02T01:15:26;99057.66;;;12.24;70.88
69796;BME280;57073;45.650;9.612;2023-05-02T01:20:28;99048.69;;;12.19;71.14
69796;BME280;57073;45.650;9.612;2023-05-02T01:25:55;99047.06;;;12.18;70.36
69796;BME280;57073;45.650;9.612;2023-05-02T01:31:03;99048.06;;;12.11;70.46
69796;BME280;57073;45.650;9.612;2023-05-02T01:36:06;99044.38;;;12.23;70.89
69796;BME280;57073;45.650;9.612;2023-05-02T01:41:08;99038.47;;;12.26;70.97
69796;BME280;57073;45.650;9.612;2023-05-02T01:46:10;99035.78;;;12.26;71.13
69796;BME280;57073;45.650;9.612;2023-05-02T01:51:14;99034.78;;;12.32;71.00
69796;BME280;57073;45.650;9.612;2023-05-02T01:56:18;99038.41;;;12.43;70.16
69796;BME280;57073;45.650;9.612;2023-05-02T02:01:21;99023.00;;;12.43;70.09
69796;BME280;57073;45.650;9.612;2023-05-02T02:06:24;99025.28;;;12.29;70.48
69796;BME280;57073;45.650;9.612;2023-05-02T02:11:35;99021.16;;;12.22;70.98
69796;BME280;57073;45.650;9.612;2023-05-02T02:16:37;99015.75;;;12.22;69.78
69796;BME280;57073;45.650;9.612;2023-05-02T02:21:42;99008.59;;;12.10;69.44
69796;BME280;57073;45.650;9.612;2023-05-02T02:26:43;99007.50;;;12.11;70.31
69796;BME280;57073;45.650;9.612;2023-05-02T02:31:43;99020.91;;;12.23;69.56
69796;BME280;57073;45.650;9.612;2023-05-02T02:36:47;99013.78;;;12.17;69.88
69796;BME280;57073;45.650;9.612;2023-05-02T02:52:27;99004.94;;;12.22;70.49
69796;BME280;57073;45.650;9.612;2023-05-02T02:57:38;99005.44;;;12.19;69.59
69796;BME280;57073;45.650;9.612;2023-05-02T03:02:41;99004.44;;;12.25;70.15
69796;BME280;57073;45.650;9.612;2023-05-02T03:07:42;99015.13;;;12.14;71.20
69796;BME280;57073;45.650;9.612;2023-05-02T03:12:42;99017.81;;;12.14;70.68
69796;BME280;57073;45.650;9.612;2023-05-02T03:17:43;99015.13;;;12.14;70.85
69796;BME280;57073;45.650;9.612;2023-05-02T03:22:43;99014.94;;;12.21;69.37
69796;BME280;57073;45.650;9.612;2023-05-02T03:27:44;99015.44;;;12.18;70.58
69796;BME280;57073;45.650;9.612;2023-05-02T03:32:44;99002.72;;;12.19;70.63
69796;BME280;57073;45.650;9.612;2023-05-02T03:37:44;99010.03;;;12.18;71.33
69796;BME280;57073;45.650;9.612;2023-05-02T03:42:45;99008.19;;;12.24;70.56
69796;BME280;57073;45.650;9.612;2023-05-02T03:47:45;99017.66;;;12.26;70.40
69796;BME280;57073;45.650;9.612;2023-05-02T03:52:45;99025.44;;;12.18;69.77
69796;BME280;57073;45.650;9.612;2023-05-02T03:57:46;99031.03;;;12.11;70.32
69796;BME280;57073;45.650;9.612;2023-05-02T04:02:46;99037.25;;;12.11;70.88
69796;BME280;57073;45.650;9.612;2023-05-02T04:07:46;99030.66;;;12.02;70.84
69796;BME280;57073;45.650;9.612;2023-05-02T04:12:47;99033.78;;;12.16;69.91
69796;BME280;57073;45.650;9.612;2023-05-02T04:17:48;99045.03;;;12.08;70.93
69796;BME280;57073;45.650;9.612;2023-05-02T04:22:48;99047.00;;;12.12;70.64
69796;BME280;57073;45.650;9.612;2023-05-02T04:27:49;99042.09;;;12.09;70.77
69796;BME280;57073;45.650;9.612;2023-05-02T04:32:49;99040.34;;;11.98;71.89
69796;BME280;57073;45.650;9.612;2023-05-02T04:37:50;99036.69;;;12.09;72.34
69796;BME280;57073;45.650;9.612;2023-05-02T04:42:50;99055.59;;;12.09;71.48
69796;BME280;57073;45.650;9.612;2023-05-02T04:47:51;99060.88;;;11.99;71.46
69796;BME280;57073;45.650;9.612;2023-05-02T04:52:51;99056.69;;;12.08;72.00
69796;BME280;57073;45.650;9.612;2023-05-02T04:57:51;99061.56;;;12.11;72.28
69796;BME280;57073;45.650;9.612;2023-05-02T05:02:51;99064.34;;;12.17;72.10
69796;BME280;57073;45.650;9.612;2023-05-02T05:07:52;99067.09;;;12.22;71.44
69796;BME280;57073;45.650;9.612;2023-05-02T05:12:52;99065.31;;;12.32;71.64
69796;BME280;57073;45.650;9.612;2023-05-02T05:17:55;99066.50;;;12.42;72.40
69796;BME280;57073;45.650;9.612;2023-05-02T05:22:55;99070.63;;;12.49;71.57
69796;BME280;57073;45.650;9.612;2023-05-02T05:27:56;99084.22;;;12.55;71.71
69796;BME280;57073;45.650;9.612;2023-05-02T05:32:56;99085.13;;;12.65;70.27
69796;BME280;57073;45.650;9.612;2023-05-02T05:38:00;99089.50;;;12.71;69.91
69796;BME280;57073;45.650;9.612;2023-05-02T05:43:00;99093.72;;;12.84;69.80
69796;BME280;57073;45.650;9.612;2023-05-02T05:48:01;99095.22;;;12.97;69.88
69796;BME280;57073;45.650;9.612;2023-05-02T05:53:01;99087.28;;;12.90;68.96
69796;BME280;57073;45.650;9.612;2023-05-02T05:58:02;99089.44;;;12.88;69.79
69796;BME280;57073;45.650;9.612;2023-05-02T06:03:02;99084.19;;;13.09;69.07
69796;BME280;57073;45.650;9.612;2023-05-02T06:08:03;99078.03;;;13.14;69.15
69796;BME280;57073;45.650;9.612;2023-05-02T06:13:04;99082.44;;;13.25;68.19
69796;BME280;57073;45.650;9.612;2023-05-02T06:18:04;99088.47;;;13.37;67.85
69796;BME280;57073;45.650;9.612;2023-05-02T06:23:04;99089.59;;;13.41;66.71
69796;BME280;57073;45.650;9.612;2023-05-02T06:28:05;99092.34;;;13.46;66.73
69796;BME280;57073;45.650;9.612;2023-05-02T06:33:06;99092.13;;;13.58;67.42
69796;BME280;57073;45.650;9.612;2023-05-02T06:38:06;99088.94;;;13.66;67.61
69796;BME280;57073;45.650;9.612;2023-05-02T06:43:07;99094.38;;;13.77;68.17
69796;BME280;57073;45.650;9.612;2023-05-02T06:48:07;99095.00;;;13.84;67.96
69796;BME280;57073;45.650;9.612;2023-05-02T06:53:08;99108.66;;;13.99;67.28
69796;BME280;57073;45.650;9.612;2023-05-02T06:58:08;99116.25;;;14.08;67.17
69796;BME280;57073;45.650;9.612;2023-05-02T07:03:09;99116.28;;;14.13;67.02
69796;BME280;57073;45.650;9.612;2023-05-02T07:08:10;99117.69;;;14.25;66.40
69796;BME280;57073;45.650;9.612;2023-05-02T07:13:10;99126.13;;;14.29;66.40
69796;BME280;57073;45.650;9.612;2023-05-02T07:18:10;99126.41;;;14.33;66.36
69796;BME280;57073;45.650;9.612;2023-05-02T07:23:11;99127.75;;;14.25;66.83
69796;BME280;57073;45.650;9.612;2023-05-02T07:28:11;99131.63;;;14.44;67.02
69796;BME280;57073;45.650;9.612;2023-05-02T07:33:14;99135.72;;;14.57;66.04
69796;BME280;57073;45.650;9.612;2023-05-02T07:38:14;99136.28;;;14.65;65.13
69796;BME280;57073;45.650;9.612;2023-05-02T07:43:14;99146.63;;;14.78;65.11
69796;BME280;57073;45.650;9.612;2023-05-02T07:48:15;99155.41;;;15.00;64.92
69796;BME280;57073;45.650;9.612;2023-05-02T07:53:15;99155.13;;;15.17;64.48
69796;BME280;57073;45.650;9.612;2023-05-02T07:58:16;99156.50;;;15.41;64.06
69796;BME280;57073;45.650;9.612;2023-05-02T08:03:16;99159.47;;;15.65;63.56
69796;BME280;57073;45.650;9.612;2023-05-02T08:08:16;99162.75;;;15.82;62.72
69796;BME280;57073;45.650;9.612;2023-05-02T08:13:17;99158.38;;;15.91;61.95
69796;BME280;57073;45.650;9.612;2023-05-02T08:18:17;99162.69;;;15.98;61.06
69796;BME280;57073;45.650;9.612;2023-05-02T08:23:17;99150.69;;;16.09;59.97
69796;BME280;57073;45.650;9.612;2023-05-02T08:28:18;99147.41;;;16.22;59.36
69796;BME280;57073;45.650;9.612;2023-05-02T08:33:18;99163.66;;;16.32;58.87
69796;BME280;57073;45.650;9.612;2023-05-02T08:38:19;99173.97;;;16.46;58.84
69796;BME280;57073;45.650;9.612;2023-05-02T08:43:19;99184.50;;;16.63;58.92
69796;BME280;57073;45.650;9.612;2023-05-02T08:48:20;99196.97;;;16.84;58.18
69796;BME280;57073;45.650;9.612;2023-05-02T08:53:21;99202.03;;;17.01;58.11
69796;BME280;57073;45.650;9.612;2023-05-02T08:58:23;99205.44;;;17.22;56.79
69796;BME280;57073;45.650;9.612;2023-05-02T09:03:33;99205.66;;;17.31;56.18
69796;BME280;57073;45.650;9.612;2023-05-02T09:08:34;99197.94;;;17.43;54.98
69796;BME280;57073;45.650;9.612;2023-05-02T09:13:43;99201.63;;;17.92;56.05
69796;BME280;57073;45.650;9.612;2023-05-02T09:18:51;99204.19;;;18.32;55.60
69796;BME280;57073;45.650;9.612;2023-05-02T09:23:54;99211.31;;;18.57;53.75
69796;BME280;57073;45.650;9.612;2023-05-02T09:28:55;99207.53;;;18.96;53.59
69796;BME280;57073;45.650;9.612;2023-05-02T09:33:56;99204.13;;;18.85;50.14
69796;BME280;57073;45.650;9.612;2023-05-02T09:39:08;99203.81;;;18.68;49.34
69796;BME280;57073;45.650;9.612;2023-05-02T09:44:10;99203.22;;;18.71;49.76
69796;BME280;57073;45.650;9.612;2023-05-02T09:49:11;99203.63;;;18.59;50.36
69796;BME280;57073;45.650;9.612;2023-05-02T09:54:35;99201.66;;;18.40;49.57
69796;BME280;57073;45.650;9.612;2023-05-02T09:59:40;99198.47;;;18.33;48.84
69796;BME280;57073;45.650;9.612;2023-05-02T10:04:41;99199.97;;;18.20;49.47
69796;BME280;57073;45.650;9.612;2023-05-02T10:09:43;99196.06;;;18.02;49.05
69796;BME280;57073;45.650;9.612;2023-05-02T10:14:48;99194.88;;;17.84;48.91
69796;BME280;57073;45.650;9.612;2023-05-02T10:19:56;99199.31;;;17.75;48.03
69796;BME280;57073;45.650;9.612;2023-05-02T10:25:01;99202.97;;;17.60;48.58
69796;BME280;57073;45.650;9.612;2023-05-02T10:30:03;99211.66;;;17.67;49.17
69796;BME280;57073;45.650;9.612;2023-05-02T10:35:05;99202.16;;;17.65;48.85
69796;BME280;57073;45.650;9.612;2023-05-02T10:40:10;99202.16;;;17.60;47.80
69796;BME280;57073;45.650;9.612;2023-05-02T10:45:12;99204.78;;;17.75;49.04
69796;BME280;57073;45.650;9.612;2023-05-02T11:06:31;99176.78;;;17.94;47.73
69796;BME280;57073;45.650;9.612;2023-05-02T11:37:55;99184.16;;;18.66;45.06
69796;BME280;57073;45.650;9.612;2023-05-02T11:42:57;99176.09;;;18.55;45.75
69796;BME280;57073;45.650;9.612;2023-05-02T11:47:59;99186.25;;;18.74;45.09
69796;BME280;57073;45.650;9.612;2023-05-02T11:52:59;99179.53;;;18.85;45.95
69796;BME280;57073;45.650;9.612;2023-05-02T11:58:00;99176.25;;;18.64;45.38
69796;BME280;57073;45.650;9.612;2023-05-02T12:03:00;99183.66;;;18.82;45.07
69796;BME280;57073;45.650;9.612;2023-05-02T12:08:01;99182.41;;;18.75;44.74
69796;BME280;57073;45.650;9.612;2023-05-02T12:13:05;99180.69;;;18.60;44.77
69796;BME280;57073;45.650;9.612;2023-05-02T12:18:06;99183.06;;;18.67;44.96
69796;BME280;57073;45.650;9.612;2023-05-02T12:23:07;99185.03;;;18.13;45.42
69796;BME280;57073;45.650;9.612;2023-05-02T12:28:09;99192.81;;;18.24;46.10
69796;BME280;57073;45.650;9.612;2023-05-02T12:33:10;99185.09;;;18.32;45.46
69796;BME280;57073;45.650;9.612;2023-05-02T12:38:18;99186.28;;;18.25;46.04
69796;BME280;57073;45.650;9.612;2023-05-02T12:43:22;99182.81;;;18.39;46.78
69796;BME280;57073;45.650;9.612;2023-05-02T12:48:25;99187.31;;;18.05;47.02
69796;BME280;57073;45.650;9.612;2023-05-02T12:53:42;99177.16;;;18.11;47.40
69796;BME280;57073;45.650;9.612;2023-05-02T12:58:45;99179.06;;;18.11;46.92
69796;BME280;57073;45.650;9.612;2023-05-02T13:03:45;99182.03;;;18.14;47.71
69796;BME280;57073;45.650;9.612;2023-05-02T13:08:47;99181.63;;;18.26;46.62
69796;BME280;57073;45.650;9.612;2023-05-02T13:13:47;99175.59;;;18.05;47.36
69796;BME280;57073;45.650;9.612;2023-05-02T13:18:47;99173.94;;;18.04;47.06
69796;BME280;57073;45.650;9.612;2023-05-02T13:23:48;99179.16;;;18.00;48.16
69796;BME280;57073;45.650;9.612;2023-05-02T13:28:49;99175.72;;;17.90;46.89
69796;BME280;57073;45.650;9.612;2023-05-02T13:33:50;99176.81;;;18.18;45.71
69796;BME280;57073;45.650;9.612;2023-05-02T13:38:50;99175.47;;;18.39;47.03
69796;BME280;57073;45.650;9.612;2023-05-02T13:43:50;99176.72;;;18.52;47.06
69796;BME280;57073;45.650;9.612;2023-05-02T13:48:54;99181.84;;;18.30;46.34
69796;BME280;57073;45.650;9.612;2023-05-02T13:53:54;99180.84;;;18.44;45.66
69796;BME280;57073;45.650;9.612;2023-05-02T13:58:55;99170.00;;;18.63;46.12
69796;BME280;57073;45.650;9.612;2023-05-02T14:03:55;99177.31;;;17.96;45.71
69796;BME280;57073;45.650;9.612;2023-05-02T14:08:56;99172.16;;;17.94;46.59
69796;BME280;57073;45.650;9.612;2023-05-02T14:13:56;99176.72;;;17.99;46.18
69796;BME280;57073;45.650;9.612;2023-05-02T14:19:01;99182.47;;;17.97;45.89
69796;BME280;57073;45.650;9.612;2023-05-02T14:24:02;99181.34;;;17.74;46.31
69796;BME280;57073;45.650;9.612;2023-05-02T14:29:02;99182.69;;;17.77;46.64
69796;BME280;57073;45.650;9.612;2023-05-02T14:34:02;99184.59;;;17.76;45.85
69796;BME280;57073;45.650;9.612;2023-05-02T14:39:03;99185.06;;;17.83;47.22
69796;BME280;57073;45.650;9.612;2023-05-02T14:44:03;99184.84;;;17.80;46.44
69796;BME280;57073;45.650;9.612;2023-05-02T14:49:06;99183.81;;;18.00;46.21
69796;BME280;57073;45.650;9.612;2023-05-02T14:54:07;99187.91;;;18.27;46.32
69796;BME280;57073;45.650;9.612;2023-05-02T14:59:07;99195.91;;;18.18;46.32
69796;BME280;57073;45.650;9.612;2023-05-02T15:04:08;99196.72;;;17.65;46.85
69796;BME280;57073;45.650;9.612;2023-05-02T15:09:08;99199.31;;;17.75;46.78
69796;BME280;57073;45.650;9.612;2023-05-02T15:19:09;99198.44;;;17.85;46.55
69796;BME280;57073;45.650;9.612;2023-05-02T15:24:09;99208.84;;;17.78;46.28
69796;BME280;57073;45.650;9.612;2023-05-02T15:29:10;99202.19;;;17.20;47.51
69796;BME280;57073;45.650;9.612;2023-05-02T15:34:11;99206.75;;;17.30;46.68
69796;BME280;57073;45.650;9.612;2023-05-02T15:39:11;99202.56;;;17.03;47.12
69796;BME280;57073;45.650;9.612;2023-05-02T15:44:12;99211.22;;;17.50;47.27
69796;BME280;57073;45.650;9.612;2023-05-02T15:49:12;99216.06;;;17.63;46.05
69796;BME280;57073;45.650;9.612;2023-05-02T15:54:13;99217.75;;;17.54;46.70
69796;BME280;57073;45.650;9.612;2023-05-02T15:59:13;99226.47;;;17.56;48.19
69796;BME280;57073;45.650;9.612;2023-05-02T16:04:13;99225.81;;;17.30;49.61
69796;BME280;57073;45.650;9.612;2023-05-02T16:09:14;99235.72;;;17.55;48.94
69796;BME280;57073;45.650;9.612;2023-05-02T16:14:14;99240.25;;;17.70;48.42
69796;BME280;57073;45.650;9.612;2023-05-02T16:19:15;99234.72;;;17.80;47.45
69796;BME280;57073;45.650;9.612;2023-05-02T16:24:15;99236.91;;;17.83;48.34
69796;BME280;57073;45.650;9.612;2023-05-02T16:29:15;99239.66;;;17.78;46.99
69796;BME280;57073;45.650;9.612;2023-05-02T16:34:16;99244.50;;;17.86;46.96
69796;BME280;57073;45.650;9.612;2023-05-02T16:39:16;99252.44;;;17.83;46.86
69796;BME280;57073;45.650;9.612;2023-05-02T16:44:16;99252.81;;;18.00;47.40
69796;BME280;57073;45.650;9.612;2023-05-02T16:49:17;99256.44;;;17.96;48.16
69796;BME280;57073;45.650;9.612;2023-05-02T16:54:17;99257.72;;;18.03;47.59
69796;BME280;57073;45.650;9.612;2023-05-02T16:59:19;99268.66;;;17.69;47.37
69796;BME280;57073;45.650;9.612;2023-05-02T17:04:19;99272.31;;;17.89;47.98
69796;BME280;57073;45.650;9.612;2023-05-02T17:09:20;99277.38;;;17.66;48.64
69796;BME280;57073;45.650;9.612;2023-05-02T17:14:20;99274.75;;;17.51;48.39
69796;BME280;57073;45.650;9.612;2023-05-02T17:19:21;99267.16;;;17.42;48.89
69796;BME280;57073;45.650;9.612;2023-05-02T17:24:22;99286.72;;;17.55;49.03
69796;BME280;57073;45.650;9.612;2023-05-02T17:29:23;99288.91;;;17.53;48.66
69796;BME280;57073;45.650;9.612;2023-05-02T17:34:26;99295.22;;;17.43;49.18
69796;BME280;57073;45.650;9.612;2023-05-02T17:39:29;99308.25;;;17.06;49.65
69796;BME280;57073;45.650;9.612;2023-05-02T17:44:30;99318.09;;;16.97;49.04
69796;BME280;57073;45.650;9.612;2023-05-02T17:49:32;99325.44;;;16.97;49.79
69796;BME280;57073;45.650;9.612;2023-05-02T17:54:32;99324.66;;;16.86;50.20
69796;BME280;57073;45.650;9.612;2023-05-02T17:59:32;99330.69;;;16.72;50.24
69796;BME280;57073;45.650;9.612;2023-05-02T18:04:33;99338.84;;;16.83;49.99
69796;BME280;57073;45.650;9.612;2023-05-02T18:09:33;99357.34;;;16.86;51.49
69796;BME280;57073;45.650;9.612;2023-05-02T18:14:33;99359.00;;;16.77;53.69
69796;BME280;57073;45.650;9.612;2023-05-02T18:19:34;99365.25;;;16.92;53.14
69796;BME280;57073;45.650;9.612;2023-05-02T18:24:34;99374.81;;;16.59;53.06
69796;BME280;57073;45.650;9.612;2023-05-02T18:29:35;99382.72;;;16.35;54.20
69796;BME280;57073;45.650;9.612;2023-05-02T18:34:35;99388.44;;;16.39;53.98
69796;BME280;57073;45.650;9.612;2023-05-02T18:39:36;99395.50;;;16.14;55.17
69796;BME280;57073;45.650;9.612;2023-05-02T18:44:36;99404.75;;;16.08;55.19
69796;BME280;57073;45.650;9.612;2023-05-02T18:49:37;99414.00;;;15.96;55.65
69796;BME280;57073;45.650;9.612;2023-05-02T18:54:37;99421.06;;;16.08;55.71
69796;BME280;57073;45.650;9.612;2023-05-02T18:59:37;99422.72;;;16.04;55.11
69796;BME280;57073;45.650;9.612;2023-05-02T19:04:38;99425.16;;;16.15;55.08
69796;BME280;57073;45.650;9.612;2023-05-02T19:09:39;99436.31;;;16.19;54.18
69796;BME280;57073;45.650;9.612;2023-05-02T19:14:39;99443.06;;;15.96;54.43
69796;BME280;57073;45.650;9.612;2023-05-02T19:19:40;99446.63;;;16.02;54.46
69796;BME280;57073;45.650;9.612;2023-05-02T19:24:40;99460.78;;;15.99;54.39
69796;BME280;57073;45.650;9.612;2023-05-02T19:29:41;99461.84;;;15.87;54.18
69796;BME280;57073;45.650;9.612;2023-05-02T19:34:41;99470.47;;;15.79;54.87
69796;BME280;57073;45.650;9.612;2023-05-02T19:39:41;99489.25;;;15.81;55.56
69796;BME280;57073;45.650;9.612;2023-05-02T19:44:42;99494.91;;;15.74;55.81
69796;BME280;57073;45.650;9.612;2023-05-02T19:49:42;99505.19;;;15.56;55.58
69796;BME280;57073;45.650;9.612;2023-05-02T19:54:43;99512.25;;;15.57;56.04
69796;BME280;57073;45.650;9.612;2023-05-02T19:59:43;99520.91;;;15.54;56.92
69796;BME280;57073;45.650;9.612;2023-05-02T20:04:43;99521.22;;;15.58;55.60
69796;BME280;57073;45.650;9.612;2023-05-02T20:09:44;99527.88;;;15.30;56.36
69796;BME280;57073;45.650;9.612;2023-05-02T20:14:44;99530.13;;;15.48;57.05
69796;BME280;57073;45.650;9.612;2023-05-02T20:19:45;99529.63;;;15.51;56.86
69796;BME280;57073;45.650;9.612;2023-05-02T20:24:45;99542.13;;;15.57;56.46
69796;BME280;57073;45.650;9.612;2023-05-02T20:29:46;99539.38;;;15.52;56.43
69796;BME280;57073;45.650;9.612;2023-05-02T20:34:46;99543.94;;;15.36;55.95
69796;BME280;57073;45.650;9.612;2023-05-02T20:39:47;99540.78;;;15.12;56.54
69796;BME280;57073;45.650;9.612;2023-05-02T20:44:57;99546.84;;;15.25;55.50
69796;BME280;57073;45.650;9.612;2023-05-02T20:49:58;99559.88;;;15.23;56.02
69796;BME280;57073;45.650;9.612;2023-05-02T20:54:59;99550.78;;;15.07;56.32
69796;BME280;57073;45.650;9.612;2023-05-02T21:00:00;99563.34;;;15.18;55.39
69796;BME280;57073;45.650;9.612;2023-05-02T21:05:01;99562.25;;;15.14;56.10
69796;BME280;57073;45.650;9.612;2023-05-02T21:10:02;99560.03;;;15.11;56.62
69796;BME280;57073;45.650;9.612;2023-05-02T21:15:04;99556.00;;;15.13;55.84
69796;BME280;57073;45.650;9.612;2023-05-02T21:20:05;99564.38;;;15.07;56.99
69796;BME280;57073;45.650;9.612;2023-05-02T21:25:06;99567.03;;;15.01;56.92
69796;BME280;57073;45.650;9.612;2023-05-02T21:30:07;99565.28;;;14.85;56.87
69796;BME280;57073;45.650;9.612;2023-05-02T21:35:08;99565.50;;;14.83;57.12
69796;BME280;57073;45.650;9.612;2023-05-02T21:40:09;99565.06;;;14.92;57.21
69796;BME280;57073;45.650;9.612;2023-05-02T21:45:09;99560.25;;;14.72;57.80
69796;BME280;57073;45.650;9.612;2023-05-02T21:50:10;99572.16;;;14.71;56.65
69796;BME280;57073;45.650;9.612;2023-05-02T21:55:10;99566.88;;;14.54;57.77
69796;BME280;57073;45.650;9.612;2023-05-02T22:00:11;99570.44;;;14.59;57.44
69796;BME280;57073;45.650;9.612;2023-05-02T22:05:12;99573.66;;;14.56;56.98
69796;BME280;57073;45.650;9.612;2023-05-02T22:10:13;99578.13;;;14.40;57.83
69796;BME280;57073;45.650;9.612;2023-05-02T22:15:13;99584.69;;;14.44;57.94
69796;BME280;57073;45.650;9.612;2023-05-02T22:20:14;99583.09;;;14.49;57.04
69796;BME280;57073;45.650;9.612;2023-05-02T22:25:15;99592.00;;;14.44;57.60
69796;BME280;57073;45.650;9.612;2023-05-02T22:30:15;99586.56;;;14.17;57.51
69796;BME280;57073;45.650;9.612;2023-05-02T22:35:15;99595.56;;;14.22;57.48
69796;BME280;57073;45.650;9.612;2023-05-02T22:40:17;99603.41;;;14.24;57.80
69796;BME280;57073;45.650;9.612;2023-05-02T22:45:17;99592.97;;;14.11;58.98
69796;BME280;57073;45.650;9.612;2023-05-02T22:50:18;99593.34;;;13.97;59.20
69796;BME280;57073;45.650;9.612;2023-05-02T22:55:18;99600.41;;;13.98;59.04
69796;BME280;57073;45.650;9.612;2023-05-02T23:00:19;99595.75;;;13.94;60.15
69796;BME280;57073;45.650;9.612;2023-05-02T23:05:21;99598.78;;;13.97;60.20
69796;BME280;57073;45.650;9.612;2023-05-02T23:10:21;99599.41;;;14.04;60.31
69796;BME280;57073;45.650;9.612;2023-05-02T23:15:22;99599.28;;;14.16;61.14
69796;BME280;57073;45.650;9.612;2023-05-02T23:20:23;99601.25;;;14.21;61.46
69796;BME280;57073;45.650;9.612;2023-05-02T23:25:25;99605.00;;;14.20;61.61
69796;BME280;57073;45.650;9.612;2023-05-02T23:30:30;99594.22;;;14.25;61.38
69796;BME280;57073;45.650;9.612;2023-05-02T23:35:31;99608.50;;;14.15;61.58
69796;BME280;57073;45.650;9.612;2023-05-02T23:40:32;99596.13;;;14.24;61.62
69796;BME280;57073;45.650;9.612;2023-05-02T23:45:33;99602.44;;;14.30;61.40
69796;BME280;57073;45.650;9.612;2023-05-02T23:50:33;99601.66;;;14.35;61.23
69796;BME280;57073;45.650;9.612;2023-05-02T23:55:33;99596.50;;;14.33;61.72
